Flight Track Log - Related Links

Times and Time Zones

All times are in EDT time to prevent confusion due to time zone crossing. See the N100PU flight status page for this flight to view local times or setup timezone preferences in your user account.

Time Position Orientation Groundspeed Altitude Reporting Facility
EDT Latitude Longitude Course Direction KTS MPH feet Rate Location/Type
Wed 08:48:35 AM 41.9333 -72.6997 267° West 162 186 900  Level Boston Center
Wed 08:49:42 AM 41.9311 -72.7667 267° West 153 176 3,900 2,344 Climbing Boston Center
Wed 08:50:43 AM 41.9286 -72.8281 267° West 178 205 5,900 1,869 Climbing Boston Center
Wed 08:51:44 AM 41.9681 -72.8672 324° Northwest 252 290 7,700 1,884 Climbing Boston Center
Wed 08:52:44 AM 42.0306 -72.8817 350° North 252 290 9,700 2,150 Climbing Boston Center
Wed 08:53:44 AM 42.1078 -72.9019 349° North 252 290 12,000 2,050 Climbing Boston Center
Wed 08:54:44 AM 42.1783 -72.9192 350° North 252 290 13,800 1,600 Climbing Boston Center
Wed 08:55:44 AM 42.2514 -72.9394 348° North 262 302 15,200 1,350 Climbing Boston Center
Wed 08:56:44 AM 42.3219 -72.9653 345° North 262 302 16,500 1,300 Climbing Boston Center
Wed 08:57:44 AM 42.3886 -73.0050 336° Northwest 262 302 17,800 1,200 Climbing Boston Center
Wed 08:58:44 AM 42.4531 -73.0394 338° Northwest 267 307 18,900 1,150 Climbing Boston Center
Wed 08:59:44 AM 42.5319 -73.0853 337° Northwest 277 319 20,100 1,050 Climbing Boston Center
Wed 09:00:44 AM 42.5628 -73.1506 303° West 249 287 21,000 1,100 Climbing Boston Center
Wed 09:01:44 AM 42.5600 -73.2575 268° West 241 277 22,300 1,200 Climbing Boston Center
Wed 09:02:44 AM 42.5553 -73.3392 266° West 252 290 23,400 1,150 Climbing Boston Center
Wed 09:03:44 AM 42.5564 -73.4436 271° West 259 298 24,600 1,200 Climbing Boston Center
Wed 09:04:44 AM 42.5514 -73.5392 266° West 259 298 25,800 1,200 Climbing Boston Center
Wed 09:05:44 AM 42.5483 -73.6322 267° West 254 292 27,000 1,100 Climbing Boston Center
Wed 09:06:44 AM 42.5431 -73.7278 266° West 254 292 28,000 1,100 Climbing Boston Center
Wed 09:07:44 AM 42.5400 -73.8292 268° West 259 298 29,200 1,050 Climbing Boston Center
Wed 09:08:44 AM 42.5344 -73.9250 266° West 264 304 30,100 1,050 Climbing Boston Center
Wed 09:09:44 AM 42.5311 -74.0236 267° West 264 304 31,300 1,150 Climbing Boston Center
Wed 09:10:44 AM 42.5275 -74.1219 267° West 264 304 32,400 950 Climbing Boston Center
Wed 09:11:44 AM 42.5219 -74.2178 266° West 264 304 33,200 850 Climbing Boston Center
Wed 09:12:44 AM 42.5183 -74.3161 267° West 264 304 34,100 850 Climbing Boston Center
Wed 09:13:44 AM 42.5144 -74.4147 267° West 264 304 34,900 750 Climbing Boston Center
Wed 09:14:44 AM 42.5042 -74.5242 263° West 264 304 35,600 550 Climbing Boston Center
Wed 09:15:44 AM 42.4981 -74.6281 265° West 276 318 36,000 200 Climbing Boston Center
Wed 09:16:44 AM 42.4939 -74.7378 267° West 283 326 36,000  Level Boston Center
Wed 09:17:44 AM 42.4894 -74.8558 267° West 298 343 36,000  Level Boston Center
Wed 09:18:44 AM 42.4825 -74.9739 265° West 312 359 36,000  Level Boston Center
Wed 09:19:44 AM 42.4758 -75.0892 266° West 312 359 36,000  Level Boston Center
Wed 09:20:44 AM 42.4708 -75.2072 267° West 312 359 36,000  Level Boston Center
Wed 09:21:44 AM 42.4617 -75.3250 264° West 312 359 36,000  Level Boston Center
Wed 09:22:44 AM 42.4567 -75.4428 267° West 312 359 36,000  Level Boston Center
Wed 09:23:44 AM 42.4492 -75.5581 265° West 312 359 36,000  Level Boston Center
Wed 09:24:44 AM 42.4439 -75.6758 267° West 312 359 36,000  Level Boston Center
Wed 09:28:07 AM 42.4181 -76.0797 265° West 316 364 36,000  Level Cleveland Center
Wed 09:29:07 AM 42.4100 -76.1956 265° West 316 364 36,000  Level Cleveland Center
Wed 09:30:07 AM 42.4042 -76.3142 266° West 316 364 36,000  Level Cleveland Center
Wed 09:31:07 AM 42.3978 -76.4272 266° West 311 358 36,000  Level Cleveland Center
Wed 09:32:07 AM 42.3914 -76.5372 266° West 311 358 36,000  Level Cleveland Center
Wed 09:33:07 AM 42.3828 -76.6503 264° West 311 358 36,000  Level Cleveland Center
Wed 09:34:07 AM 42.3761 -76.7603 265° West 311 358 36,000  Level Cleveland Center
Wed 09:35:07 AM 42.3672 -76.8733 264° West 311 358 36,000  Level Cleveland Center
Wed 09:36:07 AM 42.3603 -76.9833 265° West 311 358 36,000  Level Cleveland Center
Wed 09:37:07 AM 42.3533 -77.0961 265° West 306 352 36,000  Level Cleveland Center
Wed 09:38:07 AM 42.3442 -77.2061 264° West 306 352 36,000  Level Cleveland Center
Wed 09:39:07 AM 42.3364 -77.3050 264° West 306 352 36,000  Level Cleveland Center
Wed 09:40:07 AM 42.3292 -77.4150 265° West 306 352 36,000  Level Cleveland Center
Wed 09:41:07 AM 42.3197 -77.5250 263° West 306 352 36,000  Level Cleveland Center
Wed 09:42:07 AM 42.3100 -77.6378 263° West 306 352 36,000  Level Cleveland Center
Wed 09:43:07 AM 42.3025 -77.7503 265° West 306 352 36,000  Level Cleveland Center
Wed 09:44:07 AM 42.2947 -77.8603 265° West 306 352 36,000  Level Cleveland Center
Wed 09:45:07 AM 42.2869 -77.9728 265° West 306 352 36,000  Level Cleveland Center
Wed 09:46:07 AM 42.2789 -78.0828 264° West 301 346 36,000  Level Cleveland Center
Wed 09:47:07 AM 42.2686 -78.1897 263° West 296 341 36,000  Level Cleveland Center
Wed 09:48:07 AM 42.2606 -78.2994 264° West 296 341 36,000  Level Cleveland Center
Wed 09:49:07 AM 42.2500 -78.4119 263° West 296 341 36,000  Level Cleveland Center
Wed 09:50:07 AM 42.2417 -78.5217 264° West 296 341 36,000  Level Cleveland Center
Wed 09:51:07 AM 42.2311 -78.6314 263° West 296 341 36,000  Level Cleveland Center
Wed 09:52:07 AM 42.2247 -78.7439 266° West 296 341 36,000  Level Cleveland Center
Wed 09:53:07 AM 42.2075 -78.8508 258° West 296 341 36,000  Level Cleveland Center
Wed 09:54:07 AM 42.1861 -78.9578 255° West 296 341 36,000  Level Cleveland Center
Wed 09:55:07 AM 42.1689 -79.0619 257° West 296 341 36,000  Level Cleveland Center
Wed 09:56:07 AM 42.1494 -79.1689 256° West 296 341 36,000  Level Cleveland Center
Wed 09:57:07 AM 42.1297 -79.2700 255° West 296 341 36,000  Level Cleveland Center
Wed 09:58:07 AM 42.1100 -79.3769 256° West 296 341 36,000  Level Cleveland Center
Wed 09:59:07 AM 42.0903 -79.4781 255° West 296 341 36,000  Level Cleveland Center
Wed 10:00:07 AM 42.0725 -79.5844 257° West 296 341 36,000  Level Cleveland Center
Wed 10:01:07 AM 42.0525 -79.6883 255° West 296 341 36,000  Level Cleveland Center
Wed 10:02:07 AM 42.0322 -79.7892 255° West 291 335 36,000  Level Cleveland Center
Wed 10:03:07 AM 42.0122 -79.8928 255° West 291 335 36,000  Level Cleveland Center
Wed 10:04:07 AM 41.9897 -80.0050 255° West 291 335 36,000  Level Cleveland Center
Wed 10:05:07 AM 41.9714 -80.1056 256° West 285 328 36,000  Level Cleveland Center
Wed 10:06:07 AM 41.9511 -80.2092 255° West 285 328 36,000  Level Cleveland Center
Wed 10:07:07 AM 41.9306 -80.3153 255° West 285 328 36,000  Level Cleveland Center
Wed 10:08:07 AM 41.9119 -80.4158 256° West 285 328 36,000  Level Cleveland Center
Wed 10:09:07 AM 41.8911 -80.5219 255° West 285 328 36,000  Level Cleveland Center
Wed 10:10:07 AM 41.8703 -80.6250 255° West 285 328 36,000  Level Cleveland Center
Wed 10:11:07 AM 41.8514 -80.7225 255° West 285 328 36,000  Level Cleveland Center
Wed 10:12:07 AM 41.8325 -80.8117 254° West 280 322 36,000  Level Cleveland Center
Wed 10:13:07 AM 41.8136 -80.9092 255° West 280 322 36,000  Level Cleveland Center
Wed 10:14:07 AM 41.7925 -81.0064 254° West 280 322 36,000  Level Cleveland Center
Wed 10:15:07 AM 41.7711 -81.1067 254° West 280 322 36,000  Level Cleveland Center
Wed 10:16:07 AM 41.7497 -81.2094 254° West 280 322 36,000  Level Cleveland Center
Wed 10:17:07 AM 41.7306 -81.3122 256° West 280 322 36,000  Level Cleveland Center
Wed 10:18:07 AM 41.7067 -81.4175 253° West 286 329 36,000  Level Cleveland Center
Wed 10:19:07 AM 41.6872 -81.5286 257° West 286 329 36,000  Level Cleveland Center
Wed 10:20:07 AM 41.6653 -81.6339 254° West 286 329 36,000  Level Cleveland Center
Wed 10:21:07 AM 41.6414 -81.7389 253° West 291 335 36,000 250 Level Cleveland Center
Wed 10:22:07 AM 41.6194 -81.8414 254° West 296 341 36,500 600 Climbing Cleveland Center
Wed 10:23:07 AM 41.5975 -81.9492 255° West 301 346 37,200 700 Climbing Cleveland Center
Wed 10:24:07 AM 41.5753 -82.0542 254° West 301 346 37,900 400 Climbing Cleveland Center
Wed 10:25:07 AM 41.5531 -82.1592 254° West 301 346 38,000 50 Climbing Cleveland Center
Wed 10:26:07 AM 41.5306 -82.2642 254° West 301 346 38,000  Level Cleveland Center
Wed 10:27:07 AM 41.5083 -82.3633 253° West 301 346 38,000  Level Cleveland Center
Wed 10:28:07 AM 41.4858 -82.4625 253° West 295 339 38,000  Level Cleveland Center
Wed 10:29:07 AM 41.4656 -82.5644 255° West 290 334 38,000  Level Cleveland Center
Wed 10:30:07 AM 41.4450 -82.6608 254° West 285 328 38,000  Level Cleveland Center
Wed 10:31:07 AM 41.4203 -82.7597 252° West 285 328 38,000  Level Cleveland Center
Wed 10:32:07 AM 41.3994 -82.8586 254° West 285 328 38,000  Level Cleveland Center
Wed 10:33:07 AM 41.3811 -82.9436 254° West 285 328 38,000  Level Cleveland Center
Wed 10:34:07 AM 41.3581 -83.0425 253° West 280 322 38,000  Level Cleveland Center
Wed 10:35:07 AM 41.3372 -83.1414 254° West 280 322 38,000  Level Cleveland Center
Wed 10:36:07 AM 41.3142 -83.2372 252° West 280 322 38,000  Level Cleveland Center
Wed 10:37:07 AM 41.2933 -83.3303 253° West 280 322 38,000  Level Cleveland Center
Wed 10:38:07 AM 41.2722 -83.4261 254° West 280 322 38,000  Level Cleveland Center
Wed 10:39:07 AM 41.2489 -83.5244 253° West 275 316 38,000  Level Cleveland Center
Wed 10:40:07 AM 41.2294 -83.6203 255° West 275 316 38,000  Level Cleveland Center
Wed 10:41:07 AM 41.2083 -83.7131 253° West 275 316 38,000  Level Cleveland Center
Wed 10:42:07 AM 41.1867 -83.8114 254° West 282 325 38,000  Level Cleveland Center
Wed 10:43:07 AM 41.1608 -83.9178 252° West 274 315 38,000  Level Cleveland Center
Wed 10:44:07 AM 41.1392 -84.0161 254° West 279 321 38,000  Level Cleveland Center
Wed 10:45:32 AM 41.1042 -84.1564 252° West 280 322 38,000  Level Chicago Center
Wed 10:46:34 AM 41.0825 -84.2525 253° West 277 319 38,000  Level Chicago Center
Wed 10:47:36 AM 41.0592 -84.3489 252° West 275 316 38,000  Level Chicago Center
Wed 10:48:39 AM 41.0364 -84.4453 253° West 274 315 38,000  Level Chicago Center
Wed 10:49:41 AM 41.0136 -84.5406 252° West 273 314 38,000  Level Chicago Center
Wed 10:50:43 AM 40.9903 -84.6367 252° West 273 314 38,000 -581 Level Chicago Center
Wed 10:51:45 AM 40.9625 -84.7506 252° West 272 313 36,800 -1,306 Descending Chicago Center
Wed 10:52:47 AM 40.9375 -84.8519 252° West 284 327 35,300 -1,065 Descending Chicago Center
Wed 10:53:49 AM 40.9133 -84.9572 253° West 295 339 34,600 -919 Descending Chicago Center
Wed 10:54:51 AM 40.8886 -85.0564 252° West 289 333 33,400 -1,306 Descending Chicago Center
Wed 10:55:53 AM 40.8647 -85.1547 252° West 283 326 31,900 -1,452 Descending Chicago Center
Wed 10:56:55 AM 40.8408 -85.2511 252° West 279 321 30,400 -1,403 Descending Chicago Center
Wed 10:57:57 AM 40.8183 -85.3436 252° West 269 310 29,000 -677 Descending Chicago Center
Wed 10:58:59 AM 40.7817 -85.4461 245° Southwest 254 292 29,000 -1,008 Level Chicago Center
Wed 11:00:02 AM 40.7408 -85.5175 233° Southwest 243 280 26,900 -2,304 Descending Chicago Center
Wed 11:01:04 AM 40.7169 -85.6186 253° West 285 328 24,200 -1,403 Descending Chicago Center
Wed 11:02:06 AM 40.6944 -85.7156 253° West 279 321 24,000 -145 Descending Chicago Center
Wed 11:03:08 AM 40.6708 -85.8208 254° West 270 311 23,900 -1,597 Descending Chicago Center
Wed 11:04:10 AM 40.6486 -85.9183 253° West 277 319 20,700 -3,048 Descending Chicago Center
Wed 11:05:12 AM 40.6244 -86.0239 253° West 299 344 17,600 -3,024 Descending Chicago Center
Wed 11:06:15 AM 40.6011 -86.1281 254° West 299 344 14,400 -3,421 Descending Chicago Center
Wed 11:07:13 AM 40.5736 -86.2408 252° West 292 336 10,700 -3,328 Descending Chicago Center
Wed 11:08:14 AM 40.5514 -86.3408 254° West 276 318 7,800 -2,557 Descending Chicago Center
Wed 11:09:08 AM 40.5342 -86.4219 254° West 261 300 5,800 -1,983 Descending Chicago Center
Wed 11:10:09 AM 40.5122 -86.5108 252° West 249 287 4,000 -893 Descending Chicago Center
Wed 11:11:09 AM 40.5156 -86.5931 273° West 240 276 4,000  Level Chicago Center
Wed 11:12:10 AM 40.5228 -86.6808 276° West 229 264 4,000  Level Chicago Center
Wed 11:13:05 AM 40.5286 -86.7497 276° West 222 255 4,000  Level Chicago Center
Wed 11:14:06 AM 40.5339 -86.8267 275° West 203 234 4,000 -347 Level Chicago Center
Wed 11:15:06 AM 40.5397 -86.8956 276° West 195 224 3,300 -500 Descending Chicago Center
Wed 11:16:06 AM 40.5433 -86.9614 274° West 178 205 3,000 -149 Descending Chicago Center
Wed 11:17:07 AM 40.5497 -87.0164 279° West 159 183 3,000  Level Chicago Center
Wed 11:18:08 AM 40.5328 -87.0728 248° West 159 183 3,000 66 Level Chicago Center
Wed 11:18:38 AM 40.5272 -87.0964 253° West 174 200 3,100  Climbing Chicago Center
Wed 11:19:08 AM 40.5161 -87.1236 242° Southwest 156 180 3,000  Descending Chicago Center
Wed 11:19:40 AM 40.5139 -87.1422 261° West 149 171 3,100  Climbing Chicago Center
Wed 11:21:03 AM 40.4478 -87.1081 159° South 130 150 3,000 -72 Descending Chicago Center

Login

Don't have an account? Register now (free) for customized features, flight alerts, and more!